Nearby METAR Reports

 

KHFD - Hartford/Brainar, Connecticut, USA
Distance from station: ESE 5mi, 8km
Updated: Sun, 25-Jul-2021 4:53am EDT
Light rain, Mostly cloudy
Light rain, Mostly cloudy
 Wind from calm
Wind: Calm
Temperature: 72°F , 22°C
Dew Point: 64°F , 18°C
Humidity: 78%
Barometer: 29.96 inHg , 1014.6 hPa
Summary: Light rain
Clouds: Mostly cloudy
Visibility: 10 miles , 16 km
Cloud details: Mostly cloudy 8500 ft
Mostly cloudy 11000 ft
2021/07/25 08:53 KHFD 250853Z AUTO 00000KT 10SM -RA BKN085 BKN110 22/18 A2996 RMK AO2 RAB51 SLP145 P0000 60000 T02170178 56016
KBDL - Windsor Locks, Connecticut, USA
Distance from station: NNE 12mi, 20km
Updated: Sun, 25-Jul-2021 4:51am EDT
Light rain, Overcast
Light rain, Overcast
 Wind from WSW
Wind: WSW 5 mph , 7 km/h
Temperature: 70°F , 21°C
Dew Point: 64°F , 18°C
Humidity: 83%
Barometer: 29.96 inHg , 1014.6 hPa
Summary: Light rain
Clouds: Overcast
Visibility: 10 miles , 16 km
Cloud details: Few Clouds 5000 ft
Partly cloudy 8000 ft
Overcast 12000 ft
2021/07/25 08:51 KBDL 250851Z 24004KT 10SM -RA FEW050 SCT080 OVC120 21/18 A2996 RMK AO2 RAB20 SLP145 P0000 60000 T02060178 56015
 
KMMK - Meriden, Connecticut, USA
Distance from station: SSW 18mi, 28km
Updated: Sun, 25-Jul-2021 4:53am EDT
Overcast
Overcast
 Wind from calm
Wind: Calm
Temperature: 70°F , 21°C
Dew Point: 64°F , 18°C
Humidity: 83%
Barometer: 29.97 inHg , 1014.9 hPa
Clouds: Overcast
Visibility: 10 miles , 16 km
Cloud details: Mostly cloudy 9500 ft
Overcast 11000 ft
2021/07/25 08:53 KMMK 250853Z AUTO 00000KT 10SM BKN095 OVC110 21/18 A2997 RMK AO2 SLP147 T02110183 $
KBAF - Westfield, Massachusetts, USA
Distance from station: N 28mi, 45km
Updated: Sun, 25-Jul-2021 4:53am EDT
Light rain, Overcast
Light rain, Overcast
 Wind from calm
Wind: Calm
Temperature: 66°F , 19°C
Dew Point: 66°F , 19°C
Humidity: 100%
Barometer: 29.97 inHg , 1014.9 hPa
Summary: Light rain
Clouds: Overcast
Visibility: 8 miles , 13 km
Cloud details: Few Clouds 7000 ft
Overcast 10000 ft
2021/07/25 08:53 KBAF 250853Z AUTO 00000KT 8SM -RA FEW070 OVC100 19/19 A2997 RMK AO2 RAB05 SLP146 P0003 60003 T01940189 55009
 
KIJD - Willimantic, Connecticut, USA
Distance from station: E 29mi, 46km
Updated: Sun, 25-Jul-2021 4:52am EDT
Partly cloudy
Partly cloudy
 Wind from calm
Wind: Calm
Temperature: 64°F , 18°C
Dew Point: 63°F , 17°C
Humidity: 94%
Barometer: 29.98 inHg , 1015.2 hPa
Clouds: Partly cloudy
Visibility: 10 miles , 16 km
Cloud details: Partly cloudy 11000 ft
2021/07/25 08:52 KIJD 250852Z AUTO 00000KT 10SM SCT110 18/17 A2998 RMK AO2 RAB05E19 SLP150 P0000 60000 T01830172 56017
KOXC - Oxford/Waterbury, Connecticut, USA
Distance from station: SW 29mi, 46km
Updated: Sun, 25-Jul-2021 4:51am EDT
Light rain, Overcast
Light rain, Overcast
 Wind from SSW
Wind: SSW 3 mph , 6 km/h
Temperature: 66°F , 19°C
Dew Point: 64°F , 18°C
Humidity: 94%
Barometer: 29.99 inHg , 1015.6 hPa
Summary: Light rain
Clouds: Overcast
Visibility: 10 miles , 16 km
Cloud details: Overcast 6500 ft
2021/07/25 08:51 KOXC 250851Z AUTO 20003KT 10SM -RA OVC065 19/18 A2999 RMK AO2 RAB03 SLP163 P0002 60002 T01940183 56017
 
KSNC - Chester, Connecticut, USA
Distance from station: SSE 29mi, 47km
Updated: Sun, 25-Jul-2021 5:15am EDT
Clear
Clear
 Wind from calm
Wind: Calm
Temperature: 68°F , 20°C
Dew Point: 68°F , 20°C
Humidity: 100%
Barometer: 29.99 inHg , 1015.6 hPa
Clouds: Clear
Visibility: 10 miles , 16 km
2021/07/25 09:15 KSNC 250915Z AUTO 00000KT 10SM CLR 20/20 A2999 RMK AO2
KCEF - Chicopee/Westove, Massachusetts, USA
Distance from station: NNE 32mi, 52km
Updated: Sun, 25-Jul-2021 4:56am EDT
Light rain, Partly cloudy
Light rain, Partly cloudy
 Wind from SW
Wind: SW 6 mph , 9 km/h
Temperature: 68°F , 20°C
Dew Point: 64°F , 18°C
Humidity: 88%
Barometer: 29.96 inHg , 1014.6 hPa
Summary: Light rain
Clouds: Partly cloudy
Visibility: 10 miles , 16 km
Cloud details: Partly cloudy 8000 ft
2021/07/25 08:56 KCEF 250856Z AUTO 23005KT 10SM -RA SCT080 20/18 A2996 RMK AO2 RAB40E41DZB41E43RAB43 SLP150 P0000 60000 T01970175 55011
 
KHVN - New Haven/Tweed, Connecticut, USA
Distance from station: S 35mi, 56km
Updated: Sun, 25-Jul-2021 4:53am EDT
Light rain, Overcast
Light rain, Overcast
 Wind from varies
Wind: varies 5 mph , 7 km/h
Temperature: 75°F , 24°C
Dew Point: 68°F , 20°C
Humidity: 78%
Barometer: 29.98 inHg , 1015.2 hPa
Summary: Light rain
Clouds: Overcast
Visibility: 7 miles , 11 km
Cloud details: Overcast 9500 ft
2021/07/25 08:53 KHVN 250853Z AUTO VRB04KT 7SM -RA OVC095 24/20 A2998 RMK AO2 RAB52 SLP150 P0000 60000 T02390200 56014
KBDR - Bridgeport, Connecticut, USA
Distance from station: SSW 46mi, 74km
Updated: Sun, 25-Jul-2021 4:52am EDT
Overcast
Overcast
 Wind from SSW
Wind: SSW 12 mph , 19 km/h
Temperature: 75°F , 24°C
Dew Point: 64°F , 18°C
Humidity: 69%
Barometer: 29.97 inHg , 1014.9 hPa
Clouds: Overcast
Visibility: 10 miles , 16 km
Cloud details: Mostly cloudy 7500 ft
Overcast 9000 ft
2021/07/25 08:52 KBDR 250852Z AUTO 21010KT 10SM BKN075 OVC090 24/18 A2997 RMK AO2 SLP147 T02390178 56015
 
KGON - Groton/New Londo, Connecticut, USA
Distance from station: SE 46mi, 75km
Updated: Sun, 25-Jul-2021 4:56am EDT
Few Clouds
Few Clouds
 Wind from S
Wind: S 7 mph , 11 km/h
Temperature: 70°F , 21°C
Dew Point: 66°F , 19°C
Humidity: 88%
Barometer: 29.98 inHg , 1015.2 hPa
Clouds: Few Clouds
Visibility: 10 miles , 16 km
Cloud details: Few Clouds 10000 ft
2021/07/25 08:56 KGON 250856Z AUTO 18006KT 10SM FEW100 21/19 A2998 RMK AO2 SLP150 T02060194 56015
KDXR - Danbury, Connecticut, USA
Distance from station: SW 47mi, 76km
Updated: Sun, 25-Jul-2021 4:53am EDT
Overcast
Overcast
 Wind from S
Wind: S 10 mph , 17 km/h
Temperature: 72°F , 22°C
Dew Point: 61°F , 16°C
Humidity: 69%
Barometer: 29.97 inHg , 1014.9 hPa
Clouds: Overcast
Visibility: 10 miles , 16 km
Cloud details: Partly cloudy 7000 ft
Overcast 9000 ft
2021/07/25 08:53 KDXR 250853Z AUTO 19009KT 10SM SCT070 OVC090 22/16 A2997 RMK AO2 RAE11 SLP146 P0000 60001 T02170161 58015
 
KPSF - Pittsfield, Massachusetts, USA
Distance from station: NNW 54mi, 87km
Updated: Sun, 25-Jul-2021 5:10am EDT
Light rain, Overcast
Light rain, Overcast
 Wind from varies
Wind: varies 7 mph , 11 km/h
Temperature: 64°F , 18°C
Dew Point: 61°F , 16°C
Humidity: 88%
Barometer: 29.94 inHg , 1013.9 hPa
Summary: Light rain
Clouds: Overcast
Visibility: 10 miles , 16 km
Cloud details: Overcast 2900 ft
2021/07/25 09:10 KPSF 250910Z AUTO VRB06KT 10SM -RA OVC029 18/16 A2994 RMK AO2 P0000 T01780156 $
KWST - Westerly, Rhode Island, USA
Distance from station: ESE 56mi, 91km
Updated: Sun, 25-Jul-2021 4:53am EDT
Clear
Clear
 Wind from S
Wind: S 9 mph , 15 km/h
Temperature: 68°F , 20°C
Dew Point: 66°F , 19°C
Humidity: 94%
Barometer: 29.99 inHg , 1015.6 hPa
Clouds: Clear
Visibility: 10 miles , 16 km
2021/07/25 08:53 KWST 250853Z AUTO 17008KT 10SM CLR 20/19 A2999 RMK AO2 SLP154 T02000194 58015
 
KORH - Worcester, Massachusetts, USA
Distance from station: NE 57mi, 92km
Updated: Sun, 25-Jul-2021 5:29am EDT
Light rain, Mostly cloudy
Light rain, Mostly cloudy
 Wind from SW
Wind: SW 8 mph , 13 km/h
Temperature: 64°F , 18°C
Dew Point: 63°F , 17°C
Humidity: 94%
Barometer: 29.99 inHg , 1015.6 hPa
Summary: Light rain
Clouds: Mostly cloudy
Visibility: 9 miles , 14 km
Cloud details: Partly cloudy 400 ft
Mostly cloudy 12000 ft
2021/07/25 09:29 KORH 250929Z AUTO 22007KT 9SM -RA SCT004 BKN120 18/17 A2999 RMK AO2 RAB25 P0000 T01780167
KPOU - Poughkeepsie, New York, USA
Distance from station: W 60mi, 96km
Updated: Sun, 25-Jul-2021 4:53am EDT
Overcast
Overcast
 Wind from SE
Wind: SE 7 mph , 11 km/h
Temperature: 70°F , 21°C
Dew Point: 63°F , 17°C
Humidity: 78%
Barometer: 29.92 inHg , 1013.2 hPa
Clouds: Overcast
Visibility: 10 miles , 16 km
Cloud details: Overcast 3400 ft
2021/07/25 08:53 KPOU 250853Z AUTO 14006KT 10SM OVC034 21/17 A2992 RMK AO2 SLP129 60003 T02060172 58012 TSNO
 
KORE - Orange, Massachusetts, USA
Distance from station: NNE 60mi, 97km
Updated: Sun, 25-Jul-2021 4:52am EDT
Light rain, Mostly cloudy
Light rain, Mostly cloudy
 Wind from calm
Wind: Calm
Temperature: 64°F , 18°C
Dew Point: 63°F , 17°C
Humidity: 94%
Barometer: 29.98 inHg , 1015.2 hPa
Summary: Light rain
Clouds: Mostly cloudy
Visibility: 10 miles , 16 km
Cloud details: Partly cloudy 4000 ft
Mostly cloudy 5000 ft
Mostly cloudy 7500 ft
2021/07/25 08:52 KORE 250852Z AUTO 00000KT 10SM -RA SCT040 BKN050 BKN075 18/17 A2998 RMK AO2 RAB0753 SLP148 P0000 60000 T01830167 56014
KHTO - East Hampton, New York, USA
Distance from station: SSE 62mi, 99km
Updated: Sun, 25-Jul-2021 5:15am EDT
Mostly cloudy
Mostly cloudy
 Wind from SSW
Wind: SSW 7 mph , 11 km/h
Temperature: 72°F , 22°C
Dew Point: 68°F , 20°C
Humidity: 88%
Barometer: 29.98 inHg , 1015.2 hPa
Clouds: Mostly cloudy
Visibility: 10 miles , 16 km
Cloud details: Mostly cloudy 10000 ft
2021/07/25 09:15 KHTO 250915Z AUTO 21006KT 10SM BKN100 22/20 A2998 RMK AO2 T02150200
 
KFOK - Westhampton Beac, New York, USA
Distance from station: S 63mi, 102km
Updated: Sun, 25-Jul-2021 4:53am EDT
Partly cloudy
Partly cloudy
 Wind from SSW
Wind: SSW 7 mph , 11 km/h
Temperature: 72°F , 22°C
Dew Point: 66°F , 19°C
Humidity: 83%
Barometer: 30.00 inHg , 1015.9 hPa
Clouds: Partly cloudy
Visibility: 10 miles , 16 km
Cloud details: Partly cloudy 9000 ft
2021/07/25 08:53 KFOK 250853Z 20006KT 10SM SCT090 22/19 A3000 RMK AO2 SLP158 T02220194 56014
KMTP - Montauk, New York, USA
Distance from station: SE 64mi, 104km
Updated: Sun, 25-Jul-2021 4:54am EDT

 Wind from varies
Wind: varies 5 mph , 7 km/h
Temperature: 72°F , 22°C
Dew Point: 68°F , 20°C
Humidity: 88%
Barometer: 30.00 inHg , 1015.9 hPa
2021/07/25 08:54 KMTP 250854Z AUTO VRB04KT 22/20 A3000 RMK AO1 SLP158 T02220200 58015